Briefing drone pour Trelissac

Rechercher une autre localisation

Conditions de vol :


Nous sommes le : Mercredi 28 juillet 2021
Il est 01:53 UTC (03:53 LT)

Lever de soleil : 04:11 UTC (06:11 LT)
Coucher de soleil : 19:55 UTC (21:55 LT)

Météo

L'essentiel des conditions de vol

VIGILANCE MÉTÉO FRANCE - Dordogne (24)
Pas de vigilances particulieres
CARTE TEMSI
CARTES DES FRONTS
METAR de LFBX
LFBX 280130Z AUTO 00000KT 5000 BR FEW047 BKN058 15/14 Q1016

Date d'émission: 28/07/2021
Heure d'émission: 01:30 UTC
Vent: Calme
Visibilité horizontale: 5000 m
Plafond :
- Peu de nuages à 4700ft (1433m)
- Nuages morcelés à 5800ft (1768m)
Température: 15 °C
Point de rosée: 14 °C
Humidité: 94%
Pression (QNH): 1016 hPa
Conditions: Brume
Prévision 24h pour Perigueux (3 km)
Vent : 318° pour 3 KT (9 km/h)
Temperature Maxi: 16 °C
Temperature Min: 16 °C
Humidité : 81%
Condition : Peu nuageux



Warning: count(): Parameter must be an array or an object that implements Countable in /homepages/6/d509196549/htdocs/droneoxygene/briefing.php on line 743
WEBCAM POUR TRELISSAC

Réglementation

Voler en sécurité

CARTES AERONAUTIQUE 1/500.000
CARTES VAC (LFBX)
SUP AIP




Chargement des AIP...
NOTAM (TRELISSAC + Terrain à proximité / FIR )




Chargement des NOTAMS...
CONTACT PREFECTURE 24


Avertissement : Les données mises à disposition sont indicatives. Oxygène Drone ne pourra être tenu responsable de dégâts causés aux biens et aux personnes.